Larimore, North Dakota
Current Conditions -  °F | °C
As of 7:43 PM on Saturday 20 Dec 2014 (Local Time) from KRDR Reporting Station
Light Snow Light Snow  
Wind Chill: 18°   Ceiling: 500
Heat Index: 28°   Visibility: 6mi
Dew Point: 28°   Wind: 12mph
Humidity: 100%   Direction: 170°S
Pressure: 29.88"   Gusts: NA
Location:  47.91°N, 97.63°W
Report Text: KRDR 210143Z AUTO 17010KT 6SM R35/5000FT -SN BR OVC005 M02/M02 A2988 RMK AO2
Loading
Personal Weather Stations






























Interactive Weather Map New forecast layout! Learn more

10-Day Weather Forecast

Advertisements
Track Severe Weather on mobile